createdAt,value
2019-06-20T00:01:39.530Z,9.90
2019-06-20T00:04:08.254Z,10.13
2019-06-20T00:06:36.983Z,9.50
2019-06-20T00:09:07.112Z,9.17
2019-06-20T00:11:35.889Z,9.70
2019-06-20T00:14:04.924Z,9.60
2019-06-20T00:16:33.644Z,9.40
2019-06-20T00:19:02.395Z,10.10
2019-06-20T00:21:31.157Z,10.13
2019-06-20T00:23:59.932Z,10.03
2019-06-20T00:26:28.682Z,9.70
2019-06-20T00:28:57.411Z,9.73
2019-06-20T00:31:26.185Z,10.80
2019-06-20T00:33:54.906Z,9.73
2019-06-20T00:36:23.686Z,9.80
2019-06-20T00:38:52.391Z,10.03
2019-06-20T00:41:21.107Z,9.80
2019-06-20T00:43:49.814Z,9.70
2019-06-20T00:46:18.544Z,10.03
2019-06-20T00:48:47.293Z,10.27
2019-06-20T00:51:15.998Z,9.37
2019-06-20T00:53:44.709Z,9.77
2019-06-20T00:56:13.435Z,10.33
2019-06-20T00:58:42.144Z,10.40
2019-06-20T01:01:10.960Z,11.00
2019-06-20T01:03:39.673Z,10.73
2019-06-20T01:06:08.382Z,9.83
2019-06-20T01:08:37.094Z,9.33
2019-06-20T01:11:05.860Z,9.80
2019-06-20T01:13:34.663Z,10.67
2019-06-20T01:16:03.369Z,11.00
2019-06-20T01:18:32.127Z,12.20
2019-06-20T01:21:01.351Z,11.47
2019-06-20T01:23:30.055Z,11.70
2019-06-20T01:25:58.805Z,10.40
2019-06-20T01:28:27.509Z,9.73
2019-06-20T01:30:56.223Z,9.70
2019-06-20T01:33:24.968Z,9.90
2019-06-20T01:35:53.678Z,10.73
2019-06-20T01:38:22.486Z,10.00
2019-06-20T01:40:51.207Z,11.00
2019-06-20T01:43:19.921Z,11.57
2019-06-20T01:45:48.696Z,12.20
2019-06-20T01:48:17.407Z,12.03
2019-06-20T01:50:46.118Z,12.27
2019-06-20T01:53:14.844Z,11.97
2019-06-20T01:55:43.553Z,11.73
2019-06-20T01:58:12.317Z,11.73
2019-06-20T02:00:51.099Z,11.57
2019-06-20T02:03:21.025Z,11.87
2019-06-20T02:05:49.770Z,10.87
2019-06-20T02:08:18.483Z,10.80
2019-06-20T02:10:47.196Z,10.90
2019-06-20T02:13:16.394Z,10.80
2019-06-20T02:15:45.105Z,10.87
2019-06-20T02:18:13.921Z,16.17
2019-06-20T02:20:51.756Z,11.90
2019-06-20T02:23:20.861Z,12.07
2019-06-20T02:25:49.661Z,11.13
2019-06-20T02:28:18.337Z,11.20
2019-06-20T02:30:47.146Z,10.20
2019-06-20T02:33:16.222Z,10.47
2019-06-20T02:35:44.929Z,10.63
2019-06-20T02:38:13.674Z,10.13
2019-06-20T02:40:42.368Z,10.00
2019-06-20T02:43:11.072Z,9.73
2019-06-20T02:45:39.834Z,10.20
2019-06-20T02:48:08.545Z,10.07
2019-06-20T02:50:37.752Z,10.37
2019-06-20T02:53:06.482Z,10.73
2019-06-20T02:55:35.194Z,11.30
2019-06-20T02:58:03.899Z,10.00
2019-06-20T03:01:00.678Z,11.17
2019-06-20T03:03:29.977Z,9.43
2019-06-20T03:05:58.934Z,9.60
2019-06-20T03:08:27.939Z,10.33
2019-06-20T03:10:56.657Z,10.17
2019-06-20T03:13:25.369Z,9.93
2019-06-20T03:15:54.180Z,10.23
2019-06-20T03:18:22.929Z,9.20
2019-06-20T03:20:51.633Z,9.27
2019-06-20T03:23:20.342Z,9.70
2019-06-20T03:25:49.089Z,9.43
2019-06-20T03:28:17.791Z,9.20
2019-06-20T03:30:46.502Z,8.63
2019-06-20T03:33:15.315Z,8.53
2019-06-20T03:35:44.028Z,8.93
2019-06-20T03:38:12.812Z,9.00
2019-06-20T03:40:41.568Z,9.37
2019-06-20T03:43:10.308Z,8.80
2019-06-20T03:45:39.017Z,8.70
2019-06-20T03:48:07.729Z,8.90
2019-06-20T03:50:36.631Z,8.40
2019-06-20T03:53:05.338Z,8.20
2019-06-20T03:55:34.244Z,8.80
2019-06-20T03:58:03.112Z,10.73
2019-06-20T04:00:34.413Z,16.67
2019-06-20T04:03:03.820Z,20.77
2019-06-20T04:05:32.522Z,13.80
2019-06-20T04:08:01.332Z,12.63
2019-06-20T04:10:30.105Z,13.73
2019-06-20T04:12:58.843Z,10.97
2019-06-20T04:15:27.610Z,10.07
2019-06-20T04:17:56.308Z,9.65
2019-06-20T04:20:25.029Z,11.78
2019-06-20T04:22:53.777Z,10.80
2019-06-20T04:25:22.485Z,10.82
2019-06-20T04:27:51.264Z,10.48
2019-06-20T04:30:20.020Z,11.10
2019-06-20T04:32:48.768Z,11.28
2019-06-20T04:35:17.490Z,10.65
2019-06-20T04:37:46.207Z,12.05
2019-06-20T04:40:16.873Z,11.55
2019-06-20T04:42:45.582Z,14.78
2019-06-20T04:45:16.571Z,15.90
2019-06-20T04:47:45.289Z,19.27
2019-06-20T04:50:14.113Z,35.38
2019-06-20T04:52:42.863Z,11.68
2019-06-20T04:55:11.574Z,20.80
2019-06-20T04:57:40.345Z,66.95
2019-06-20T05:00:09.633Z,50.35
2019-06-20T05:02:38.311Z,10.00
2019-06-20T05:05:09.185Z,12.40
2019-06-20T05:07:37.896Z,11.70
2019-06-20T05:10:07.299Z,13.43
2019-06-20T05:12:36.036Z,8.93
2019-06-20T05:15:06.348Z,11.40
2019-06-20T05:17:35.115Z,12.93
2019-06-20T05:20:04.925Z,9.60
2019-06-20T05:22:33.634Z,9.28
2019-06-20T05:25:02.346Z,8.93
2019-06-20T05:27:31.061Z,9.58
2019-06-20T05:29:59.801Z,9.38
2019-06-20T05:32:28.509Z,9.13
2019-06-20T05:34:57.230Z,10.60
2019-06-20T05:37:25.955Z,11.10
2019-06-20T05:39:54.675Z,10.15
2019-06-20T05:42:24.265Z,10.93
2019-06-20T05:44:52.979Z,10.38
2019-06-20T05:47:21.689Z,9.10
2019-06-20T05:49:50.467Z,9.00
2019-06-20T05:52:19.201Z,9.18
2019-06-20T05:54:47.943Z,9.43
2019-06-20T05:57:16.693Z,9.70
2019-06-20T05:59:45.386Z,9.45
2019-06-20T06:02:14.125Z,8.73
2019-06-20T06:04:42.960Z,8.80
2019-06-20T06:07:14.272Z,8.53
2019-06-20T06:09:42.457Z,8.93
2019-06-20T06:12:11.261Z,8.73
2019-06-20T06:14:40.013Z,9.00
2019-06-20T06:17:08.799Z,9.30
2019-06-20T06:19:37.513Z,9.05
2019-06-20T06:22:06.235Z,9.53
2019-06-20T06:24:34.952Z,9.55
2019-06-20T06:27:03.711Z,8.80
2019-06-20T06:29:33.990Z,8.95
2019-06-20T06:32:02.700Z,9.53
2019-06-20T06:34:31.421Z,9.03
2019-06-20T06:37:00.133Z,9.00
2019-06-20T06:39:28.872Z,8.88
2019-06-20T06:41:57.613Z,8.60
2019-06-20T06:44:26.302Z,8.75
2019-06-20T06:46:59.458Z,8.98
2019-06-20T06:49:25.461Z,8.70
2019-06-20T06:51:54.229Z,9.18
2019-06-20T06:54:22.941Z,8.65
2019-06-20T06:56:51.653Z,8.60
2019-06-20T06:59:20.369Z,8.75
2019-06-20T07:01:49.077Z,8.95
2019-06-20T07:04:17.832Z,8.78
2019-06-20T07:06:46.549Z,8.77
2019-06-20T07:09:15.256Z,8.40
2019-06-20T07:11:44.086Z,8.80
2019-06-20T07:14:12.791Z,8.83
2019-06-20T07:16:41.502Z,8.33
2019-06-20T07:19:10.219Z,8.83
2019-06-20T07:21:38.937Z,9.30
2019-06-20T07:24:07.686Z,8.50
2019-06-20T07:26:36.408Z,8.73
2019-06-20T07:29:05.750Z,8.83
2019-06-20T07:31:34.444Z,8.50
2019-06-20T07:34:03.169Z,8.33
2019-06-20T07:36:31.986Z,8.67
2019-06-20T07:39:00.713Z,8.13
2019-06-20T07:41:29.418Z,7.60
2019-06-20T07:43:58.135Z,8.10
2019-06-20T07:46:26.856Z,9.27
2019-06-20T07:48:55.623Z,8.57
2019-06-20T07:51:24.335Z,9.13
2019-06-20T07:53:53.053Z,8.57
2019-06-20T07:56:21.865Z,8.60
2019-06-20T07:58:50.575Z,8.93
2019-06-20T08:01:19.383Z,8.73
2019-06-20T08:03:48.128Z,8.70
2019-06-20T08:06:16.922Z,9.27
2019-06-20T08:08:45.675Z,9.67
2019-06-20T08:11:14.385Z,9.17
2019-06-20T08:13:43.101Z,9.90
2019-06-20T08:16:11.824Z,9.73
2019-06-20T08:18:40.552Z,10.30
2019-06-20T08:21:09.344Z,9.53
2019-06-20T08:23:38.050Z,9.77
2019-06-20T08:26:06.999Z,9.13
2019-06-20T08:28:35.661Z,9.33
2019-06-20T08:31:04.848Z,10.23
2019-06-20T08:33:33.737Z,9.00
2019-06-20T08:36:02.460Z,8.83
2019-06-20T08:38:31.165Z,8.83
2019-06-20T08:41:00.204Z,9.10
2019-06-20T08:43:29.051Z,9.00
2019-06-20T08:45:57.925Z,9.10
2019-06-20T08:48:26.612Z,9.17
2019-06-20T08:50:56.859Z,8.73
2019-06-20T08:53:25.765Z,8.70
2019-06-20T08:55:55.896Z,9.20
2019-06-20T08:58:24.952Z,9.23
2019-06-20T09:00:55.480Z,9.63
2019-06-20T09:03:24.149Z,9.13
2019-06-20T09:05:54.962Z,9.30
2019-06-20T09:08:23.309Z,9.60
2019-06-20T09:10:54.111Z,9.50
2019-06-20T09:13:22.486Z,9.50
2019-06-20T09:15:52.229Z,8.30
2019-06-20T09:18:21.628Z,7.83
2019-06-20T09:20:52.671Z,8.27
2019-06-20T09:23:20.804Z,8.53
2019-06-20T09:25:50.921Z,8.40
2019-06-20T09:28:19.963Z,8.00
2019-06-20T09:30:48.672Z,8.50
2019-06-20T09:33:17.380Z,8.10
2019-06-20T09:35:46.084Z,8.30
2019-06-20T09:38:14.793Z,8.13
2019-06-20T09:40:43.500Z,7.77
2019-06-20T09:43:24.170Z,8.50
2019-06-20T09:45:42.649Z,8.20
2019-06-20T09:48:11.348Z,8.07
2019-06-20T09:50:40.048Z,8.00
2019-06-20T09:53:08.764Z,8.37
2019-06-20T09:55:37.463Z,8.20
2019-06-20T09:58:06.493Z,7.90
2019-06-20T10:00:35.741Z,7.97
2019-06-20T10:03:04.917Z,8.27
2019-06-20T10:05:33.618Z,8.70
2019-06-20T10:08:02.436Z,8.05
2019-06-20T10:10:32.142Z,7.10
2019-06-20T10:13:00.899Z,7.30
2019-06-20T10:15:32.303Z,7.20
2019-06-20T10:18:01.026Z,7.30
2019-06-20T10:20:29.827Z,7.30
2019-06-20T10:22:58.647Z,8.30
2019-06-20T10:25:27.395Z,8.20
2019-06-20T10:27:57.691Z,7.70
2019-06-20T10:30:28.095Z,7.90
2019-06-20T10:32:57.698Z,7.40
2019-06-20T10:35:27.007Z,7.90
2019-06-20T10:37:57.147Z,9.00
2019-06-20T10:40:26.551Z,8.20
2019-06-20T10:42:56.656Z,8.00
2019-06-20T10:45:26.683Z,8.37
2019-06-20T10:47:55.961Z,7.90
2019-06-20T10:50:25.605Z,8.40
2019-06-20T10:52:54.812Z,8.63
2019-06-20T10:55:24.019Z,8.10
2019-06-20T10:57:52.731Z,8.50
2019-06-20T11:00:30.975Z,8.43
2019-06-20T11:02:54.674Z,8.33
2019-06-20T11:05:24.363Z,8.30
2019-06-20T11:07:53.080Z,8.43
2019-06-20T11:10:23.446Z,7.67
2019-06-20T11:12:55.631Z,7.53
2019-06-20T11:15:24.150Z,7.87
2019-06-20T11:17:56.143Z,7.33
2019-06-20T11:20:23.604Z,8.17
2019-06-20T11:22:52.350Z,8.67
2019-06-20T11:25:21.161Z,8.23
2019-06-20T11:27:49.865Z,7.80
2019-06-20T11:30:44.929Z,7.90
2019-06-20T11:33:00.953Z,7.90
2019-06-20T11:35:29.654Z,8.00
2019-06-20T11:37:58.379Z,7.37
2019-06-20T11:40:27.158Z,7.30
2019-06-20T11:42:55.929Z,7.10
2019-06-20T11:45:25.534Z,7.40
2019-06-20T11:47:54.251Z,7.47
2019-06-20T11:50:24.529Z,7.93
2019-06-20T11:52:53.251Z,6.97
2019-06-20T11:55:22.163Z,6.70
2019-06-20T11:57:50.884Z,7.22
2019-06-20T12:00:20.605Z,6.92
2019-06-20T12:02:50.298Z,7.50
2019-06-20T12:05:19.129Z,7.40
2019-06-20T12:07:49.577Z,7.40
2019-06-20T12:10:18.917Z,7.33
2019-06-20T12:12:48.997Z,7.37
2019-06-20T12:15:19.914Z,7.20
2019-06-20T12:17:49.351Z,7.58
2019-06-20T12:20:18.854Z,7.12
2019-06-20T12:22:50.553Z,8.13
2019-06-20T12:25:18.056Z,7.45
2019-06-20T12:27:47.618Z,8.18
2019-06-20T12:30:19.157Z,8.18
2019-06-20T12:32:49.173Z,8.00
2019-06-20T12:35:18.270Z,8.00
2019-06-20T12:37:47.792Z,7.50
2019-06-20T12:40:17.417Z,7.92
2019-06-20T12:42:46.784Z,8.40
2019-06-20T12:45:16.929Z,7.58
2019-06-20T12:47:46.073Z,8.40
2019-06-20T12:50:15.687Z,7.55
2019-06-20T12:52:45.746Z,7.83
2019-06-20T12:55:15.442Z,7.72
2019-06-20T12:57:44.352Z,7.08
2019-06-20T13:00:14.942Z,7.15
2019-06-20T13:02:44.222Z,7.67
2019-06-20T13:05:15.981Z,8.08
2019-06-20T13:07:46.229Z,7.50
2019-06-20T13:10:15.581Z,7.95
2019-06-20T13:12:44.384Z,8.03
2019-06-20T13:15:13.641Z,8.83
2019-06-20T13:17:43.660Z,7.90
2019-06-20T13:20:13.674Z,7.85
2019-06-20T13:22:42.902Z,7.87
2019-06-20T13:25:13.480Z,7.72
2019-06-20T13:27:43.403Z,7.65
2019-06-20T13:30:13.307Z,7.90
2019-06-20T13:32:43.426Z,6.90
2019-06-20T13:35:14.653Z,7.58
2019-06-20T13:37:43.930Z,6.58
2019-06-20T13:40:14.562Z,7.78
2019-06-20T13:42:44.165Z,8.40
2019-06-20T13:45:27.385Z,7.62
2019-06-20T13:47:56.494Z,8.10
2019-06-20T13:50:26.799Z,7.78
2019-06-20T13:52:55.527Z,8.15
2019-06-20T13:55:24.235Z,8.23
2019-06-20T13:57:52.998Z,8.03
2019-06-20T14:00:24.041Z,8.23
2019-06-20T14:02:52.747Z,8.63
2019-06-20T14:05:21.680Z,8.65
2019-06-20T14:07:53.819Z,7.85
2019-06-20T14:10:21.032Z,8.00
2019-06-20T14:12:49.729Z,7.75
2019-06-20T14:15:18.843Z,7.87
2019-06-20T14:17:49.743Z,8.55
2019-06-20T14:20:19.607Z,7.83
2019-06-20T14:22:49.478Z,8.93
2019-06-20T14:25:20.657Z,8.03
2019-06-20T14:27:49.974Z,8.40
2019-06-20T14:30:20.817Z,8.40
2019-06-20T14:32:49.609Z,7.95
2019-06-20T14:35:18.974Z,8.20
2019-06-20T14:37:49.171Z,8.38
2019-06-20T14:40:19.851Z,8.35
2019-06-20T14:42:50.116Z,8.50
2019-06-20T14:45:19.834Z,9.33
2019-06-20T14:47:48.638Z,8.68
2019-06-20T14:50:17.852Z,9.10
2019-06-20T14:52:48.171Z,8.38
2019-06-20T14:55:17.050Z,8.55
2019-06-20T14:57:46.968Z,8.20
2019-06-20T15:00:17.160Z,8.00
2019-06-20T15:02:47.989Z,7.87
2019-06-20T15:05:17.869Z,8.97
2019-06-20T15:07:48.919Z,9.60
2019-06-20T15:10:17.675Z,8.23
2019-06-20T15:12:48.344Z,7.00
2019-06-20T15:15:17.159Z,7.47
2019-06-20T15:17:47.450Z,7.63
2019-06-20T15:20:17.117Z,7.30
2019-06-20T15:22:47.417Z,7.37
2019-06-20T15:25:16.260Z,7.10
2019-06-20T15:27:47.280Z,7.80
2019-06-20T15:30:16.094Z,8.00
2019-06-20T15:32:55.555Z,7.60
2019-06-20T15:35:15.375Z,7.47
2019-06-20T15:37:44.117Z,8.03
2019-06-20T15:40:13.490Z,7.87
2019-06-20T15:42:42.235Z,7.40
2019-06-20T15:45:11.338Z,7.57
2019-06-20T15:47:40.048Z,7.60
2019-06-20T15:50:09.048Z,7.40
2019-06-20T15:52:37.770Z,7.67
2019-06-20T15:55:07.845Z,7.30
2019-06-20T15:57:36.573Z,7.27
2019-06-20T16:00:14.474Z,7.37
2019-06-20T16:02:43.185Z,7.07
2019-06-20T16:05:13.111Z,7.37
2019-06-20T16:07:41.852Z,7.27
2019-06-20T16:10:10.972Z,8.33
2019-06-20T16:12:39.743Z,8.17
2019-06-20T16:15:10.721Z,7.63
2019-06-20T16:17:39.426Z,7.37
2019-06-20T16:20:08.754Z,7.33
2019-06-20T16:22:37.457Z,7.40
2019-06-20T16:25:09.523Z,7.93
2019-06-20T16:27:38.250Z,8.03
2019-06-20T16:30:07.463Z,7.43
2019-06-20T16:32:36.777Z,7.40
2019-06-20T16:35:08.822Z,8.00
2019-06-20T16:37:37.563Z,7.27
2019-06-20T16:40:08.640Z,6.80
2019-06-20T16:42:37.341Z,6.97
2019-06-20T16:45:07.651Z,6.80
2019-06-20T16:47:36.356Z,6.87
2019-06-20T16:50:08.720Z,6.00
2019-06-20T16:52:37.426Z,6.30
2019-06-20T16:55:06.926Z,6.50
2019-06-20T16:57:35.628Z,6.83
2019-06-20T17:00:07.528Z,6.70
2019-06-20T17:02:36.298Z,6.53
2019-06-20T17:05:06.710Z,6.10
2019-06-20T17:07:35.804Z,6.40
2019-06-20T17:10:06.418Z,6.07
2019-06-20T17:12:35.127Z,6.80
2019-06-20T17:15:05.069Z,6.07
2019-06-20T17:17:33.772Z,6.17
2019-06-20T17:20:02.516Z,6.67
2019-06-20T17:22:31.227Z,6.37
2019-06-20T17:24:59.932Z,6.43
2019-06-20T17:27:28.709Z,6.90
2019-06-20T17:29:57.468Z,6.57
2019-06-20T17:32:26.190Z,6.40
2019-06-20T17:34:54.934Z,6.20
2019-06-20T17:37:23.655Z,6.07
2019-06-20T17:39:52.428Z,6.37
2019-06-20T17:42:21.146Z,6.50
2019-06-20T17:44:49.851Z,6.27
2019-06-20T17:47:18.565Z,6.43
2019-06-20T17:49:47.293Z,6.73
2019-06-20T17:52:16.043Z,6.63
2019-06-20T17:54:44.756Z,6.50
2019-06-20T17:57:13.460Z,6.33
2019-06-20T17:59:42.186Z,6.40
2019-06-20T18:02:10.894Z,6.37
2019-06-20T18:04:39.638Z,6.87
2019-06-20T18:07:10.043Z,6.60
2019-06-20T18:09:40.365Z,6.80
2019-06-20T18:12:10.642Z,7.30
2019-06-20T18:14:39.398Z,6.83
2019-06-20T18:17:08.143Z,6.90
2019-06-20T18:19:36.853Z,6.90
2019-06-20T18:22:05.564Z,6.40
2019-06-20T18:24:34.281Z,6.80
2019-06-20T18:27:02.995Z,6.87
2019-06-20T18:29:31.749Z,6.90
2019-06-20T18:32:00.514Z,6.90
2019-06-20T18:34:30.525Z,6.60
2019-06-20T18:36:59.581Z,6.23
2019-06-20T18:39:28.275Z,6.90
2019-06-20T18:41:57.033Z,7.37
2019-06-20T18:44:26.141Z,9.63
2019-06-20T18:46:54.849Z,9.43
2019-06-20T18:49:23.570Z,7.53
2019-06-20T18:51:52.280Z,7.30
2019-06-20T18:54:21.137Z,7.20
2019-06-20T18:56:49.872Z,6.70
2019-06-20T18:59:18.573Z,7.30
2019-06-20T19:01:47.290Z,7.10
2019-06-20T19:04:15.991Z,7.03
2019-06-20T19:06:44.759Z,6.83
2019-06-20T19:09:13.457Z,6.87
2019-06-20T19:11:42.199Z,7.57
2019-06-20T19:14:12.723Z,7.37
2019-06-20T19:16:41.333Z,7.37
2019-06-20T19:19:10.088Z,7.77
2019-06-20T19:21:38.786Z,7.57
2019-06-20T19:24:07.499Z,7.57
2019-06-20T19:26:36.216Z,6.90
2019-06-20T19:29:05.041Z,7.70
2019-06-20T19:31:33.748Z,6.97
2019-06-20T19:34:02.443Z,7.50
2019-06-20T19:36:31.189Z,7.50
2019-06-20T19:38:59.902Z,7.50
2019-06-20T19:41:28.602Z,7.30
2019-06-20T19:43:57.330Z,7.87
2019-06-20T19:46:26.059Z,7.70
2019-06-20T19:48:54.804Z,7.70
2019-06-20T19:51:23.520Z,8.10
2019-06-20T19:53:52.228Z,7.40
2019-06-20T19:56:21.042Z,8.00
2019-06-20T19:58:49.846Z,7.60
2019-06-20T20:01:18.889Z,7.90
2019-06-20T20:03:47.667Z,7.80
2019-06-20T20:06:16.395Z,8.40
2019-06-20T20:08:45.184Z,8.60
2019-06-20T20:11:13.889Z,8.00
2019-06-20T20:13:42.641Z,7.93
2019-06-20T20:16:11.342Z,7.70
2019-06-20T20:18:40.049Z,7.80
2019-06-20T20:21:08.766Z,7.40
2019-06-20T20:23:37.483Z,7.90
2019-06-20T20:26:08.687Z,8.13
2019-06-20T20:28:36.689Z,8.83
2019-06-20T20:31:05.401Z,8.63
2019-06-20T20:33:34.108Z,8.90
2019-06-20T20:36:02.815Z,8.87
2019-06-20T20:38:31.557Z,9.40
2019-06-20T20:41:00.268Z,8.77
2019-06-20T20:43:28.987Z,8.37
2019-06-20T20:45:57.703Z,8.17
2019-06-20T20:48:26.408Z,9.70
2019-06-20T20:50:55.159Z,9.40
2019-06-20T20:53:23.872Z,9.20
2019-06-20T20:55:52.580Z,9.50
2019-06-20T20:58:21.297Z,9.57
2019-06-20T21:00:58.551Z,10.67
2019-06-20T21:03:27.269Z,10.07
2019-06-20T21:05:55.981Z,10.47
2019-06-20T21:08:24.684Z,9.97
2019-06-20T21:10:53.398Z,9.93
2019-06-20T21:13:22.113Z,10.10
2019-06-20T21:15:50.821Z,9.63
2019-06-20T21:18:19.603Z,10.07
2019-06-20T21:20:48.310Z,8.27
2019-06-20T21:23:17.021Z,8.50
2019-06-20T21:25:45.799Z,9.07
2019-06-20T21:28:14.500Z,8.77
2019-06-20T21:30:43.224Z,9.27
2019-06-20T21:33:11.960Z,9.37
2019-06-20T21:35:40.973Z,9.37
2019-06-20T21:38:09.677Z,9.20
2019-06-20T21:40:38.388Z,9.03
2019-06-20T21:43:07.100Z,9.43
2019-06-20T21:45:35.863Z,9.47
2019-06-20T21:48:04.707Z,9.13
2019-06-20T21:50:33.376Z,9.77
2019-06-20T21:53:02.610Z,10.60
2019-06-20T21:55:31.319Z,10.53
2019-06-20T21:58:00.070Z,10.13
2019-06-20T22:00:33.321Z,10.40
2019-06-20T22:03:02.006Z,10.40
2019-06-20T22:05:30.729Z,9.63
2019-06-20T22:07:59.452Z,9.97
2019-06-20T22:10:28.207Z,10.17
2019-06-20T22:12:56.953Z,10.37
2019-06-20T22:15:25.650Z,9.93
2019-06-20T22:17:54.366Z,10.50
2019-06-20T22:20:24.687Z,10.30
2019-06-20T22:22:53.547Z,9.50
2019-06-20T22:25:22.663Z,9.90
2019-06-20T22:27:51.390Z,10.33
2019-06-20T22:30:28.771Z,10.17
2019-06-20T22:32:57.475Z,9.63
2019-06-20T22:35:26.225Z,9.87
2019-06-20T22:37:54.933Z,10.13
2019-06-20T22:40:23.652Z,9.90
2019-06-20T22:42:52.358Z,9.90
2019-06-20T22:45:21.192Z,9.87
2019-06-20T22:47:49.918Z,10.13
2019-06-20T22:50:18.739Z,9.33
2019-06-20T22:52:47.442Z,9.63
2019-06-20T22:55:16.163Z,9.77
2019-06-20T22:57:44.876Z,9.90
2019-06-20T23:00:14.128Z,9.80
2019-06-20T23:02:42.856Z,9.70
2019-06-20T23:05:11.666Z,9.77
2019-06-20T23:07:40.646Z,10.17
2019-06-20T23:10:11.347Z,9.50
2019-06-20T23:12:40.319Z,10.30
2019-06-20T23:15:09.706Z,9.70
2019-06-20T23:17:38.412Z,9.40
2019-06-20T23:20:08.523Z,9.40
2019-06-20T23:22:37.234Z,8.83
2019-06-20T23:25:08.137Z,8.93
2019-06-20T23:27:36.795Z,8.50
2019-06-20T23:30:07.577Z,8.23
2019-06-20T23:32:36.273Z,8.13
2019-06-20T23:35:09.304Z,8.90
2019-06-20T23:37:38.049Z,8.80
2019-06-20T23:40:07.858Z,8.10
2019-06-20T23:42:36.597Z,8.13
2019-06-20T23:45:09.780Z,8.20
2019-06-20T23:47:38.483Z,8.23
2019-06-20T23:50:10.631Z,8.30
2019-06-20T23:52:46.633Z,8.40
2019-06-20T23:55:15.380Z,8.50
2019-06-20T23:57:44.090Z,8.03
